createdAt,value
2022-08-28T00:02:02.207Z,14.43
2022-08-28T00:04:29.570Z,16.35
2022-08-28T00:06:56.964Z,11.40
2022-08-28T00:09:24.844Z,11.07
2022-08-28T00:11:52.152Z,10.73
2022-08-28T00:14:21.121Z,7.85
2022-08-28T00:16:49.519Z,6.15
2022-08-28T00:19:18.743Z,8.77
2022-08-28T00:21:47.074Z,12.45
2022-08-28T00:24:14.369Z,7.22
2022-08-28T00:27:00.288Z,5.93
2022-08-28T00:29:28.225Z,11.10
2022-08-28T00:31:56.588Z,11.75
2022-08-28T00:34:32.888Z,13.50
2022-08-28T00:37:00.957Z,15.77
2022-08-28T00:39:28.519Z,13.45
2022-08-28T00:41:57.762Z,14.38
2022-08-28T00:44:27.319Z,13.02
2022-08-28T00:46:56.445Z,12.25
2022-08-28T00:49:27.579Z,16.85
2022-08-28T00:52:08.171Z,17.20
2022-08-28T00:54:41.585Z,10.73
2022-08-28T00:57:34.148Z,13.73
2022-08-28T01:00:01.705Z,16.58
2022-08-28T01:02:29.326Z,13.25
2022-08-28T01:04:56.647Z,18.38
2022-08-28T01:07:23.971Z,11.95
2022-08-28T01:09:54.783Z,15.35
2022-08-28T01:12:26.855Z,14.63
2022-08-28T01:14:59.820Z,15.60
2022-08-28T01:17:31.375Z,14.77
2022-08-28T01:20:03.774Z,17.73
2022-08-28T01:22:34.187Z,15.93
2022-08-28T01:25:03.502Z,17.85
2022-08-28T01:27:30.746Z,18.05
2022-08-28T01:29:57.991Z,14.02
2022-08-28T01:32:35.228Z,17.02
2022-08-28T01:35:04.524Z,17.63
2022-08-28T01:37:32.014Z,16.77
2022-08-28T01:40:01.266Z,18.30
2022-08-28T01:42:28.807Z,16.73
2022-08-28T01:44:58.028Z,18.55
2022-08-28T01:47:25.246Z,17.02
2022-08-28T01:49:52.465Z,14.93
2022-08-28T01:52:19.667Z,14.15
2022-08-28T01:54:53.708Z,11.05
2022-08-28T01:57:20.923Z,10.00
2022-08-28T01:59:50.905Z,12.10
2022-08-28T02:02:18.202Z,9.90
2022-08-28T02:04:48.212Z,10.25
2022-08-28T02:07:16.993Z,14.30
2022-08-28T02:09:44.355Z,10.90
2022-08-28T02:12:11.656Z,13.07
2022-08-28T02:14:38.897Z,12.00
2022-08-28T02:17:06.172Z,11.93
2022-08-28T02:19:33.395Z,10.60
2022-08-28T02:22:00.659Z,12.90
2022-08-28T02:24:27.908Z,12.52
2022-08-28T02:26:55.141Z,16.77
2022-08-28T02:29:22.404Z,17.10
2022-08-28T02:31:49.668Z,12.30
2022-08-28T02:34:16.895Z,10.45
2022-08-28T02:36:44.214Z,10.77
2022-08-28T02:39:11.655Z,9.43
2022-08-28T02:41:39.239Z,9.75
2022-08-28T02:44:06.468Z,12.98
2022-08-28T02:46:33.928Z,8.65
2022-08-28T02:49:01.243Z,9.80
2022-08-28T02:51:31.227Z,9.15
2022-08-28T02:53:58.472Z,11.98
2022-08-28T02:56:25.699Z,10.63
2022-08-28T02:58:53.014Z,11.60
2022-08-28T03:01:22.636Z,12.77
2022-08-28T03:03:50.022Z,11.75
2022-08-28T03:06:17.321Z,11.60
2022-08-28T03:08:45.375Z,10.90
2022-08-28T03:11:12.857Z,11.15
2022-08-28T03:13:40.148Z,15.63
2022-08-28T03:16:07.560Z,9.77
2022-08-28T03:18:35.092Z,11.45
2022-08-28T03:21:02.322Z,12.27
2022-08-28T03:23:30.148Z,16.60
2022-08-28T03:26:02.158Z,9.45
2022-08-28T03:28:32.752Z,8.82
2022-08-28T03:31:00.455Z,12.68
2022-08-28T03:33:27.959Z,8.07
2022-08-28T03:35:55.642Z,8.93
2022-08-28T03:38:25.298Z,9.57
2022-08-28T03:40:53.477Z,9.25
2022-08-28T03:43:23.756Z,12.55
2022-08-28T03:45:58.938Z,13.82
2022-08-28T03:48:28.500Z,8.93
2022-08-28T03:50:56.275Z,8.90
2022-08-28T03:53:26.288Z,9.98
2022-08-28T03:55:54.304Z,9.27
2022-08-28T03:58:23.396Z,10.98
2022-08-28T04:00:51.125Z,9.45
2022-08-28T04:03:19.275Z,17.70
2022-08-28T04:05:47.344Z,11.20
2022-08-28T04:08:17.707Z,10.38
2022-08-28T04:10:46.478Z,10.38
2022-08-28T04:13:16.147Z,10.45
2022-08-28T04:15:43.752Z,10.20
2022-08-28T04:18:12.368Z,9.57
2022-08-28T04:20:39.713Z,11.65
2022-08-28T04:23:09.856Z,11.43
2022-08-28T04:25:40.220Z,12.30
2022-08-28T04:28:07.439Z,10.75
2022-08-28T04:30:34.680Z,14.98
2022-08-28T04:33:02.350Z,14.20
2022-08-28T04:35:29.621Z,10.18
2022-08-28T04:37:59.008Z,12.43
2022-08-28T04:40:26.754Z,14.18
2022-08-28T04:42:54.057Z,10.45
2022-08-28T04:45:22.069Z,12.55
2022-08-28T04:47:49.373Z,12.52
2022-08-28T04:50:16.729Z,11.98
2022-08-28T04:52:43.980Z,16.27
2022-08-28T04:55:11.220Z,17.33
2022-08-28T04:57:38.432Z,11.45
2022-08-28T05:00:09.012Z,13.65
2022-08-28T05:02:36.325Z,11.68
2022-08-28T05:05:04.343Z,9.43
2022-08-28T05:07:31.564Z,11.35
2022-08-28T05:09:58.868Z,14.88
2022-08-28T05:12:26.632Z,11.38
2022-08-28T05:14:53.872Z,18.92
2022-08-28T05:17:21.106Z,9.00
2022-08-28T05:19:48.383Z,15.50
2022-08-28T05:22:16.113Z,11.70
2022-08-28T05:24:43.410Z,15.38
2022-08-28T05:27:10.620Z,22.00
2022-08-28T05:29:38.948Z,15.57
2022-08-28T05:32:06.215Z,15.98
2022-08-28T05:34:33.574Z,18.75
2022-08-28T05:37:00.852Z,18.35
2022-08-28T05:39:28.152Z,20.98
2022-08-28T05:41:55.367Z,22.63
2022-08-28T05:44:22.765Z,16.13
2022-08-28T05:46:49.970Z,18.88
2022-08-28T05:49:19.369Z,28.85
2022-08-28T05:51:47.113Z,24.27
2022-08-28T05:54:15.621Z,25.73
2022-08-28T05:56:45.007Z,21.63
2022-08-28T05:59:14.256Z,25.52
2022-08-28T06:01:47.065Z,23.75
2022-08-28T06:04:26.131Z,23.55
2022-08-28T06:06:54.189Z,26.38
2022-08-28T06:09:29.769Z,22.92
2022-08-28T06:11:59.908Z,25.00
2022-08-28T06:14:27.553Z,26.73
2022-08-28T06:16:56.467Z,27.23
2022-08-28T06:19:25.607Z,24.88
2022-08-28T06:21:58.522Z,26.15
2022-08-28T06:24:27.982Z,10.07
2022-08-28T06:26:58.773Z,9.02
2022-08-28T06:29:27.526Z,17.02
2022-08-28T06:31:58.541Z,25.08
2022-08-28T06:34:26.634Z,11.63
2022-08-28T06:36:54.497Z,19.40
2022-08-28T06:39:22.749Z,17.48
2022-08-28T06:41:50.398Z,17.90
2022-08-28T06:44:19.999Z,26.17
2022-08-28T06:46:49.763Z,25.35
2022-08-28T06:49:17.250Z,15.13
2022-08-28T06:51:44.509Z,10.10
2022-08-28T06:54:11.902Z,26.23
2022-08-28T06:56:39.169Z,22.38
2022-08-28T06:59:06.479Z,15.32
2022-08-28T07:01:36.563Z,8.60
2022-08-28T07:04:08.767Z,16.08
2022-08-28T07:06:39.543Z,13.45
2022-08-28T07:09:09.234Z,26.55
2022-08-28T07:11:37.825Z,14.68
2022-08-28T07:14:05.999Z,17.52
2022-08-28T07:16:38.212Z,25.00
2022-08-28T07:19:11.271Z,26.17
2022-08-28T07:21:42.366Z,18.55
2022-08-28T07:24:12.023Z,21.88
2022-08-28T07:26:41.114Z,23.70
2022-08-28T07:29:09.929Z,21.50
2022-08-28T07:31:40.774Z,25.23
2022-08-28T07:34:09.738Z,25.70
2022-08-28T07:36:37.136Z,25.33
2022-08-28T07:39:05.324Z,26.30
2022-08-28T07:41:35.310Z,25.05
2022-08-28T07:44:21.541Z,13.93
2022-08-28T07:46:48.792Z,20.98
2022-08-28T07:49:17.278Z,20.17
2022-08-28T07:51:46.708Z,9.73
2022-08-28T07:54:16.901Z,13.07
2022-08-28T07:56:46.536Z,15.55
2022-08-28T07:59:16.776Z,17.80
2022-08-28T08:01:46.786Z,10.57
2022-08-28T08:04:16.279Z,9.45
2022-08-28T08:06:44.213Z,24.38
2022-08-28T08:09:14.385Z,15.32
2022-08-28T08:11:42.672Z,8.77
2022-08-28T08:14:10.393Z,19.27
2022-08-28T08:16:42.031Z,10.85
2022-08-28T08:19:15.049Z,18.23
2022-08-28T08:21:43.884Z,15.48
2022-08-28T08:24:19.941Z,16.17
2022-08-28T08:26:56.556Z,22.75
2022-08-28T08:29:35.512Z,10.52
2022-08-28T08:32:06.961Z,14.05
2022-08-28T08:34:38.569Z,10.60
2022-08-28T08:37:06.585Z,8.30
2022-08-28T08:39:35.055Z,9.48
2022-08-28T08:42:07.295Z,8.82
2022-08-28T08:44:38.772Z,10.10
2022-08-28T08:47:30.434Z,7.97
2022-08-28T08:50:02.328Z,17.63
2022-08-28T08:52:54.303Z,15.25
2022-08-28T08:55:27.080Z,12.30
2022-08-28T08:57:59.412Z,13.73
2022-08-28T09:00:29.266Z,8.82
2022-08-28T09:03:13.146Z,12.90
2022-08-28T09:05:56.033Z,17.33
2022-08-28T09:08:42.476Z,9.07
2022-08-28T09:11:41.719Z,16.35
2022-08-28T09:14:46.408Z,12.43
2022-08-28T09:17:22.192Z,14.05
2022-08-28T09:19:49.526Z,13.02
2022-08-28T09:22:16.765Z,9.32
2022-08-28T09:24:44.312Z,9.50
2022-08-28T09:27:28.218Z,10.07
2022-08-28T09:30:07.237Z,12.40
2022-08-28T09:32:41.577Z,9.93
2022-08-28T09:35:16.600Z,10.68
2022-08-28T09:37:44.227Z,8.30
2022-08-28T09:40:17.351Z,7.63
2022-08-28T09:43:19.758Z,12.40
2022-08-28T09:46:04.510Z,7.32
2022-08-28T09:48:31.847Z,10.35
2022-08-28T09:51:03.789Z,5.47
2022-08-28T09:53:56.752Z,7.90
2022-08-28T09:56:32.780Z,7.70
2022-08-28T09:59:01.273Z,6.50
2022-08-28T10:01:46.708Z,7.60
2022-08-28T10:04:31.581Z,6.93
2022-08-28T10:07:05.205Z,8.27
2022-08-28T10:09:47.790Z,6.80
2022-08-28T10:12:38.279Z,9.68
2022-08-28T10:15:26.368Z,11.57
2022-08-28T10:18:15.473Z,13.43
2022-08-28T10:20:59.545Z,9.40
2022-08-28T10:23:44.993Z,8.35
2022-08-28T10:26:46.132Z,11.45
2022-08-28T10:29:31.583Z,12.88
2022-08-28T10:32:01.487Z,14.18
2022-08-28T10:34:54.528Z,10.90
2022-08-28T10:37:24.722Z,6.82
2022-08-28T10:39:57.721Z,8.20
2022-08-28T10:42:38.230Z,6.45
2022-08-28T10:45:11.798Z,8.57
2022-08-28T10:47:42.690Z,9.80
2022-08-28T10:50:23.440Z,9.15
2022-08-28T10:53:15.526Z,8.15
2022-08-28T10:56:00.065Z,8.57
2022-08-28T10:58:27.864Z,6.68
2022-08-28T11:01:01.829Z,7.50
2022-08-28T11:03:34.885Z,7.20
2022-08-28T11:06:14.139Z,8.15
2022-08-28T11:08:41.737Z,11.68
2022-08-28T11:11:15.110Z,8.85
2022-08-28T11:13:45.070Z,7.78
2022-08-28T11:16:23.553Z,8.80
2022-08-28T11:18:59.855Z,6.93
2022-08-28T11:21:30.120Z,9.95
2022-08-28T11:24:06.420Z,7.45
2022-08-28T11:26:38.379Z,5.93
2022-08-28T11:29:06.101Z,7.87
2022-08-28T11:31:37.660Z,9.15
2022-08-28T11:34:05.661Z,5.75
2022-08-28T11:36:32.841Z,6.57
2022-08-28T11:39:18.652Z,9.15
2022-08-28T11:42:25.046Z,9.77
2022-08-28T11:44:52.379Z,8.43
2022-08-28T11:47:44.061Z,7.45
2022-08-28T11:50:29.924Z,7.13
2022-08-28T11:53:33.621Z,9.02
2022-08-28T11:56:13.171Z,9.15
2022-08-28T11:58:53.308Z,7.93
2022-08-28T12:04:02.848Z,7.93
2022-08-28T12:06:45.960Z,6.18
2022-08-28T12:09:38.818Z,7.65
2022-08-28T12:12:21.500Z,8.48
2022-08-28T12:14:48.644Z,7.43
2022-08-28T12:17:21.896Z,6.90
2022-08-28T12:19:58.820Z,5.60
2022-08-28T12:22:53.069Z,6.43
2022-08-28T12:25:42.207Z,5.85
2022-08-28T12:28:31.840Z,6.80
2022-08-28T12:31:50.180Z,6.40
2022-08-28T12:34:32.568Z,7.80
2022-08-28T12:37:03.095Z,6.78
2022-08-28T12:39:33.147Z,5.38
2022-08-28T12:42:03.473Z,8.07
2022-08-28T12:44:33.618Z,6.65
2022-08-28T12:47:01.264Z,5.55
2022-08-28T12:50:01.123Z,6.90
2022-08-28T12:53:02.453Z,6.03
2022-08-28T12:55:37.136Z,7.00
2022-08-28T12:58:04.516Z,4.80
2022-08-28T13:00:52.439Z,7.25
2022-08-28T13:03:20.031Z,7.22
2022-08-28T13:05:57.149Z,6.00
2022-08-28T13:08:24.777Z,6.60
2022-08-28T13:10:52.883Z,6.38
2022-08-28T13:13:40.193Z,6.40
2022-08-28T13:16:11.681Z,5.20
2022-08-28T13:18:50.353Z,4.93
2022-08-28T13:21:17.601Z,6.30
2022-08-28T13:24:01.153Z,5.43
2022-08-28T13:26:35.258Z,7.15
2022-08-28T13:29:16.545Z,5.65
2022-08-28T13:31:44.405Z,5.43
2022-08-28T13:34:25.983Z,4.95
2022-08-28T13:36:55.775Z,6.28
2022-08-28T13:39:23.055Z,5.18
2022-08-28T13:41:53.797Z,5.55
2022-08-28T13:44:34.403Z,5.40
2022-08-28T13:47:06.767Z,5.43
2022-08-28T13:49:35.651Z,6.18
2022-08-28T13:52:05.642Z,7.25
2022-08-28T13:54:35.021Z,7.38
2022-08-28T13:57:04.259Z,5.68
2022-08-28T13:59:32.128Z,8.73
2022-08-28T14:02:21.712Z,9.00
2022-08-28T14:04:49.048Z,7.57
2022-08-28T14:07:16.520Z,5.07
2022-08-28T14:09:43.885Z,15.50
2022-08-28T14:12:11.466Z,6.10
2022-08-28T14:14:39.440Z,6.47
2022-08-28T14:17:07.699Z,8.40
2022-08-28T14:19:35.110Z,7.50
2022-08-28T14:22:02.967Z,6.72
2022-08-28T14:24:30.208Z,5.00
2022-08-28T14:26:57.495Z,5.03
2022-08-28T14:29:24.995Z,4.43
2022-08-28T14:31:52.419Z,4.65
2022-08-28T14:34:22.679Z,7.05
2022-08-28T14:36:54.992Z,8.88
2022-08-28T14:39:25.567Z,5.90
2022-08-28T14:41:53.480Z,6.47
2022-08-28T14:44:22.304Z,5.35
2022-08-28T14:46:50.339Z,4.40
2022-08-28T14:49:19.531Z,5.13
2022-08-28T14:51:48.089Z,6.18
2022-08-28T14:54:19.212Z,5.28
2022-08-28T14:56:47.723Z,5.28
2022-08-28T14:59:24.205Z,7.03
2022-08-28T15:01:55.550Z,6.43
2022-08-28T15:04:25.019Z,6.55
2022-08-28T15:06:58.386Z,4.70
2022-08-28T15:09:26.221Z,5.82
2022-08-28T15:11:53.466Z,6.38
2022-08-28T15:14:20.920Z,7.75
2022-08-28T15:16:49.440Z,5.68
2022-08-28T15:19:18.121Z,3.35
2022-08-28T15:21:51.333Z,4.20
2022-08-28T15:24:22.364Z,3.78
2022-08-28T15:26:50.551Z,4.95
2022-08-28T15:29:18.352Z,3.75
2022-08-28T15:31:49.124Z,3.63
2022-08-28T15:34:20.528Z,2.72
2022-08-28T15:36:54.624Z,4.90
2022-08-28T15:39:45.647Z,2.92
2022-08-28T15:42:13.700Z,2.80
2022-08-28T15:44:41.122Z,2.78
2022-08-28T15:47:09.136Z,6.20
2022-08-28T15:49:38.848Z,4.68
2022-08-28T15:52:12.455Z,4.35
2022-08-28T15:54:39.702Z,3.25
2022-08-28T15:57:06.963Z,2.65
2022-08-28T15:59:48.532Z,2.55
2022-08-28T16:02:21.238Z,2.63
2022-08-28T16:04:49.129Z,2.95
2022-08-28T16:07:17.904Z,5.10
2022-08-28T16:09:45.268Z,4.97
2022-08-28T16:12:12.827Z,3.65
2022-08-28T16:14:40.467Z,6.13
2022-08-28T16:17:11.019Z,2.67
2022-08-28T16:19:40.272Z,2.97
2022-08-28T16:22:09.609Z,3.10
2022-08-28T16:24:37.656Z,3.88
2022-08-28T16:27:06.479Z,2.95
2022-08-28T16:29:36.940Z,2.53
2022-08-28T16:32:05.441Z,3.38
2022-08-28T16:34:33.633Z,3.70
2022-08-28T16:37:01.785Z,4.10
2022-08-28T16:39:29.011Z,3.15
2022-08-28T16:41:56.340Z,3.67
2022-08-28T16:44:26.150Z,4.25
2022-08-28T16:46:55.162Z,3.50
2022-08-28T16:49:23.738Z,3.03
2022-08-28T16:51:51.094Z,3.83
2022-08-28T16:54:19.046Z,3.20
2022-08-28T16:56:46.489Z,2.97
2022-08-28T16:59:17.412Z,3.22
2022-08-28T17:01:45.447Z,4.18
2022-08-28T17:04:20.496Z,2.55
2022-08-28T17:06:47.772Z,3.10
2022-08-28T17:09:14.993Z,3.58
2022-08-28T17:11:42.211Z,3.30
2022-08-28T17:14:11.998Z,3.50
2022-08-28T17:16:39.549Z,4.32
2022-08-28T17:19:06.759Z,3.78
2022-08-28T17:21:52.690Z,4.53
2022-08-28T17:24:20.199Z,2.90
2022-08-28T17:26:47.464Z,3.15
2022-08-28T17:29:15.551Z,5.35
2022-08-28T17:31:43.084Z,5.43
2022-08-28T17:34:10.659Z,4.60
2022-08-28T17:36:39.813Z,4.22
2022-08-28T17:39:10.577Z,3.58
2022-08-28T17:41:39.301Z,4.90
2022-08-28T17:44:07.387Z,3.47
2022-08-28T17:46:37.893Z,4.47
2022-08-28T17:49:07.099Z,3.00
2022-08-28T17:51:43.486Z,3.00
2022-08-28T17:54:13.620Z,4.07
2022-08-28T17:56:41.589Z,3.75
2022-08-28T17:59:09.501Z,3.45
2022-08-28T18:01:38.361Z,4.68
2022-08-28T18:04:05.821Z,3.35
2022-08-28T18:06:33.564Z,5.28
2022-08-28T18:09:01.203Z,3.10
2022-08-28T18:11:28.890Z,4.00
2022-08-28T18:13:56.143Z,5.93
2022-08-28T18:16:27.628Z,3.65
2022-08-28T18:18:57.010Z,3.63
2022-08-28T18:21:24.804Z,2.65
2022-08-28T18:23:52.109Z,4.57
2022-08-28T18:26:19.682Z,4.75
2022-08-28T18:28:47.019Z,3.65
2022-08-28T18:31:14.504Z,3.78
2022-08-28T18:33:41.809Z,3.55
2022-08-28T18:36:11.238Z,4.80
2022-08-28T18:38:38.867Z,2.97
2022-08-28T18:41:07.100Z,4.35
2022-08-28T18:43:34.978Z,4.82
2022-08-28T18:46:03.723Z,6.57
2022-08-28T18:48:31.711Z,6.07
2022-08-28T18:50:58.922Z,3.03
2022-08-28T18:53:26.544Z,3.17
2022-08-28T18:55:55.116Z,3.10
2022-08-28T18:58:23.684Z,4.30
2022-08-28T19:00:51.207Z,3.75
2022-08-28T19:03:18.455Z,3.05
2022-08-28T19:05:46.173Z,3.35
2022-08-28T19:08:14.353Z,3.85
2022-08-28T19:10:41.906Z,5.05
2022-08-28T19:13:09.245Z,3.42
2022-08-28T19:15:36.864Z,3.35
2022-08-28T19:18:05.377Z,3.80
2022-08-28T19:20:33.435Z,4.60
2022-08-28T19:23:00.765Z,3.75
2022-08-28T19:25:30.567Z,4.75
2022-08-28T19:27:59.607Z,3.10
2022-08-28T19:30:31.186Z,3.30
2022-08-28T19:32:59.199Z,4.10
2022-08-28T19:35:27.004Z,3.08
2022-08-28T19:37:54.565Z,3.65
2022-08-28T19:40:22.477Z,2.63
2022-08-28T19:42:50.084Z,2.38
2022-08-28T19:45:17.926Z,4.82
2022-08-28T19:47:45.707Z,3.63
2022-08-28T19:50:14.457Z,3.25
2022-08-28T19:52:43.469Z,2.47
2022-08-28T19:55:23.284Z,2.40
2022-08-28T19:57:50.584Z,2.80
2022-08-28T20:00:20.342Z,2.42
2022-08-28T20:02:49.113Z,3.15
2022-08-28T20:05:16.409Z,3.53
2022-08-28T20:07:44.033Z,3.85
2022-08-28T20:10:12.816Z,3.30
2022-08-28T20:12:47.986Z,3.28
2022-08-28T20:15:17.973Z,2.92
2022-08-28T20:17:49.349Z,2.33
2022-08-28T20:20:19.542Z,2.75
2022-08-28T20:22:47.191Z,2.47
2022-08-28T20:25:15.686Z,3.25
2022-08-28T20:27:42.909Z,3.15
2022-08-28T20:30:11.422Z,2.10
2022-08-28T20:32:41.006Z,2.92
2022-08-28T20:35:10.889Z,4.18
2022-08-28T20:37:44.708Z,3.80
2022-08-28T20:40:17.469Z,2.83
2022-08-28T20:42:45.864Z,2.20
2022-08-28T20:45:14.106Z,2.15
2022-08-28T20:47:41.410Z,4.53
2022-08-28T20:50:09.375Z,2.40
2022-08-28T20:52:36.739Z,3.65
2022-08-28T20:55:05.735Z,5.75
2022-08-28T20:57:33.715Z,4.60
2022-08-28T21:00:05.287Z,3.35
2022-08-28T21:02:33.244Z,3.55
2022-08-28T21:05:00.706Z,3.13
2022-08-28T21:07:28.497Z,3.88
2022-08-28T21:10:06.655Z,3.75
2022-08-28T21:12:39.134Z,2.92
2022-08-28T21:15:08.778Z,2.65
2022-08-28T21:17:36.314Z,3.33
2022-08-28T21:20:11.249Z,5.25
2022-08-28T21:22:39.530Z,4.28
2022-08-28T21:25:09.356Z,2.67
2022-08-28T21:27:37.245Z,5.30
2022-08-28T21:30:07.132Z,2.65
2022-08-28T21:32:35.071Z,5.70
2022-08-28T21:35:04.683Z,3.40
2022-08-28T21:37:32.135Z,4.60
2022-08-28T21:40:00.695Z,2.30
2022-08-28T21:42:28.677Z,2.88
2022-08-28T21:44:55.931Z,3.10
2022-08-28T21:47:24.514Z,3.63
2022-08-28T21:49:54.597Z,2.30
2022-08-28T21:52:23.710Z,3.17
2022-08-28T21:54:57.594Z,2.60
2022-08-28T21:57:24.927Z,2.22
2022-08-28T21:59:52.163Z,2.42
2022-08-28T22:02:19.418Z,3.45
2022-08-28T22:04:46.921Z,4.50
2022-08-28T22:07:14.229Z,3.25
2022-08-28T22:09:41.610Z,3.30
2022-08-28T22:12:09.782Z,6.70
2022-08-28T22:14:37.151Z,3.72
2022-08-28T22:17:10.680Z,4.82
2022-08-28T22:19:39.610Z,4.40
2022-08-28T22:22:26.651Z,3.47
2022-08-28T22:24:54.324Z,3.38
2022-08-28T22:27:22.215Z,2.47
2022-08-28T22:29:49.690Z,3.17
2022-08-28T22:32:17.194Z,5.45
2022-08-28T22:34:46.088Z,5.13
2022-08-28T22:37:13.724Z,2.67
2022-08-28T22:39:42.065Z,9.27
2022-08-28T22:42:09.948Z,5.22
2022-08-28T22:44:37.968Z,4.28
2022-08-28T22:47:05.847Z,2.78
2022-08-28T22:49:33.322Z,2.60
2022-08-28T22:52:00.678Z,3.25
2022-08-28T22:54:27.923Z,3.80
2022-08-28T22:56:55.245Z,2.55
2022-08-28T22:59:22.521Z,2.53
2022-08-28T23:01:49.769Z,3.85
2022-08-28T23:04:17.503Z,3.38
2022-08-28T23:06:45.302Z,2.78
2022-08-28T23:09:12.534Z,3.65
2022-08-28T23:11:39.757Z,2.97
2022-08-28T23:14:07.130Z,3.13
2022-08-28T23:16:35.281Z,3.03
2022-08-28T23:19:13.381Z,4.18
2022-08-28T23:21:43.845Z,4.82
2022-08-28T23:24:13.522Z,2.50
2022-08-28T23:26:40.983Z,2.53
2022-08-28T23:29:09.705Z,2.00
2022-08-28T23:31:37.100Z,2.90
2022-08-28T23:34:05.607Z,4.10
2022-08-28T23:36:34.675Z,4.82
2022-08-28T23:39:03.975Z,2.50
2022-08-28T23:41:32.723Z,4.68
2022-08-28T23:44:02.401Z,3.53
2022-08-28T23:46:31.529Z,3.30
2022-08-28T23:48:58.718Z,2.67
2022-08-28T23:51:26.379Z,2.95
2022-08-28T23:53:53.633Z,2.85
2022-08-28T23:56:20.891Z,3.05
2022-08-28T23:58:48.092Z,4.15
